createdAt,value
2022-09-28T00:03:07.654Z,12.49
2022-09-28T00:06:44.471Z,12.49
2022-09-28T00:10:23.725Z,12.49
2022-09-28T00:14:03.842Z,12.48
2022-09-28T00:17:34.826Z,12.46
2022-09-28T00:21:13.898Z,12.43
2022-09-28T00:24:48.480Z,12.41
2022-09-28T00:28:24.737Z,12.39
2022-09-28T00:32:04.898Z,12.40
2022-09-28T00:35:38.446Z,12.40
2022-09-28T00:39:17.622Z,12.40
2022-09-28T00:42:52.000Z,12.41
2022-09-28T00:46:33.904Z,12.44
2022-09-28T00:50:09.089Z,12.47
2022-09-28T00:53:44.644Z,12.49
2022-09-28T00:57:21.400Z,12.50
2022-09-28T01:00:59.334Z,12.50
2022-09-28T01:04:32.759Z,12.49
2022-09-28T01:08:11.018Z,12.49
2022-09-28T01:11:46.760Z,12.49
2022-09-28T01:15:26.924Z,12.48
2022-09-28T01:19:29.164Z,12.44
2022-09-28T01:23:00.499Z,12.41
2022-09-28T01:26:25.519Z,12.35
2022-09-28T01:30:07.838Z,12.30
2022-09-28T01:33:35.698Z,12.24
2022-09-28T01:37:09.363Z,12.19
2022-09-28T01:40:42.173Z,12.14
2022-09-28T01:44:21.021Z,12.10
2022-09-28T01:47:58.720Z,12.05
2022-09-28T01:51:50.040Z,12.03
2022-09-28T01:55:21.080Z,12.00
2022-09-28T01:58:50.898Z,11.97
2022-09-28T02:02:29.698Z,11.95
2022-09-28T02:06:13.720Z,11.91
2022-09-28T02:09:44.200Z,11.90
2022-09-28T02:13:23.666Z,11.87
2022-09-28T02:16:52.222Z,11.84
2022-09-28T02:20:26.672Z,11.82
2022-09-28T02:24:10.739Z,11.78
2022-09-28T02:27:45.518Z,11.73
2022-09-28T02:31:16.329Z,11.68
2022-09-28T02:34:52.642Z,11.65
2022-09-28T02:38:31.429Z,11.61
2022-09-28T02:42:08.900Z,11.58
2022-09-28T02:46:13.893Z,11.56
2022-09-28T02:49:43.319Z,11.52
2022-09-28T02:53:19.681Z,11.47
2022-09-28T02:56:44.584Z,11.43
2022-09-28T03:00:21.955Z,11.38
2022-09-28T03:04:01.541Z,11.33
2022-09-28T03:07:29.640Z,11.29
2022-09-28T03:11:07.480Z,11.23
2022-09-28T03:14:37.449Z,11.19
2022-09-28T03:18:14.362Z,11.17
2022-09-28T03:21:50.877Z,11.12
2022-09-28T03:25:29.675Z,11.09
2022-09-28T03:29:05.524Z,11.05
2022-09-28T03:32:41.642Z,11.06
2022-09-28T03:36:18.361Z,11.05
2022-09-28T03:39:55.401Z,11.02
2022-09-28T03:43:31.888Z,10.98
2022-09-28T03:47:09.295Z,10.95
2022-09-28T03:50:45.479Z,10.88
2022-09-28T03:54:22.054Z,10.85
2022-09-28T03:57:58.879Z,10.83
2022-09-28T04:01:35.658Z,10.81
2022-09-28T04:05:12.656Z,10.80
2022-09-28T04:08:49.240Z,10.78
2022-09-28T04:12:26.040Z,10.73
2022-09-28T04:16:02.908Z,10.69
2022-09-28T04:19:39.605Z,10.68
2022-09-28T04:23:17.161Z,10.65
2022-09-28T04:27:13.001Z,10.60
2022-09-28T04:30:30.116Z,10.59
2022-09-28T04:34:07.114Z,10.60
2022-09-28T04:37:43.743Z,10.61
2022-09-28T04:41:22.641Z,10.62
2022-09-28T04:44:58.960Z,10.60
2022-09-28T04:48:34.130Z,10.60
2022-09-28T04:52:17.892Z,10.60
2022-09-28T04:56:02.497Z,10.59
2022-09-28T04:59:24.840Z,10.58
2022-09-28T05:03:01.204Z,10.59
2022-09-28T05:06:38.039Z,10.61
2022-09-28T05:10:16.229Z,10.62
2022-09-28T05:13:52.148Z,10.62
2022-09-28T05:17:29.555Z,10.62
2022-09-28T05:21:11.664Z,10.60
2022-09-28T05:24:42.941Z,10.60
2022-09-28T05:28:26.249Z,10.61
2022-09-28T05:31:57.784Z,10.61
2022-09-28T05:35:34.407Z,10.61
2022-09-28T05:39:10.376Z,10.63
2022-09-28T05:42:46.018Z,10.61
2022-09-28T05:46:24.345Z,10.58
2022-09-28T05:49:59.657Z,10.56
2022-09-28T05:53:36.999Z,10.57
2022-09-28T05:57:14.079Z,10.57
2022-09-28T06:00:55.908Z,10.63
2022-09-28T06:04:27.200Z,10.66
2022-09-28T06:08:05.464Z,10.67
2022-09-28T06:11:40.431Z,10.64
2022-09-28T06:15:17.559Z,10.64
2022-09-28T06:18:54.419Z,10.64
2022-09-28T06:22:31.275Z,10.66
2022-09-28T06:26:08.473Z,10.64
2022-09-28T06:29:44.485Z,10.66
2022-09-28T06:33:22.022Z,10.65
2022-09-28T06:37:00.305Z,10.63
2022-09-28T06:40:35.926Z,10.63
2022-09-28T06:44:11.581Z,10.61
2022-09-28T06:47:57.047Z,10.60
2022-09-28T06:51:25.385Z,10.58
2022-09-28T06:55:21.578Z,10.55
2022-09-28T06:58:38.982Z,10.55
2022-09-28T07:02:16.227Z,10.52
2022-09-28T07:05:54.580Z,10.47
2022-09-28T07:09:33.142Z,10.45
2022-09-28T07:13:07.945Z,10.39
2022-09-28T07:17:09.305Z,10.38
2022-09-28T07:20:20.121Z,10.40
2022-09-28T07:23:56.657Z,10.38
2022-09-28T07:27:35.458Z,10.39
2022-09-28T07:31:11.148Z,10.41
2022-09-28T07:34:49.939Z,10.39
2022-09-28T07:38:26.306Z,10.43
2022-09-28T07:42:02.942Z,10.44
2022-09-28T07:45:38.556Z,10.38
2022-09-28T07:49:16.672Z,10.34
2022-09-28T07:52:51.152Z,10.35
2022-09-28T07:56:28.114Z,10.35
2022-09-28T08:00:09.453Z,10.42
2022-09-28T08:03:46.633Z,10.44
2022-09-28T08:07:24.201Z,10.52
2022-09-28T08:10:58.525Z,10.60
2022-09-28T08:14:35.266Z,10.70
2022-09-28T08:18:11.408Z,10.80
2022-09-28T08:21:48.541Z,10.91
2022-09-28T08:25:25.222Z,10.98
2022-09-28T08:29:01.789Z,11.00
2022-09-28T08:32:38.743Z,10.95
2022-09-28T08:36:15.776Z,10.88
2022-09-28T08:39:53.061Z,10.84
2022-09-28T08:43:48.152Z,10.75
2022-09-28T08:47:51.119Z,10.70
2022-09-28T08:51:26.978Z,10.67
2022-09-28T08:54:48.981Z,10.66
2022-09-28T08:58:28.900Z,10.65
2022-09-28T09:02:00.682Z,10.62
2022-09-28T09:05:52.032Z,10.63
2022-09-28T09:09:22.934Z,10.59
2022-09-28T09:12:54.587Z,10.54
2022-09-28T09:16:43.022Z,10.54
2022-09-28T09:20:39.791Z,10.48
2022-09-28T09:24:18.315Z,10.45
2022-09-28T09:28:02.901Z,10.43
2022-09-28T09:34:59.809Z,10.42
2022-09-28T09:38:42.123Z,10.42
2022-09-28T09:42:23.732Z,10.42
2022-09-28T09:45:56.950Z,10.46
2022-09-28T09:49:28.571Z,10.50
2022-09-28T09:53:05.767Z,10.51
2022-09-28T09:56:39.989Z,10.53
2022-09-28T10:00:14.847Z,10.51
2022-09-28T10:03:48.839Z,10.47
2022-09-28T10:07:29.126Z,10.45
2022-09-28T10:11:09.741Z,10.43
2022-09-28T10:14:36.523Z,10.46
2022-09-28T10:18:16.975Z,10.49
2022-09-28T10:21:53.868Z,10.53
2022-09-28T10:25:27.055Z,10.59
2022-09-28T10:29:11.764Z,10.60
2022-09-28T10:32:43.949Z,10.60
2022-09-28T10:36:17.652Z,10.60
2022-09-28T10:39:56.254Z,10.56
2022-09-28T10:43:36.809Z,10.50
2022-09-28T10:47:14.777Z,10.44
2022-09-28T10:50:59.684Z,10.40
2022-09-28T10:54:23.054Z,10.34
2022-09-28T10:57:59.638Z,10.30
2022-09-28T11:01:35.271Z,10.30
2022-09-28T11:05:22.023Z,10.28
2022-09-28T11:08:50.732Z,10.28
2022-09-28T11:12:29.496Z,10.35
2022-09-28T11:16:02.710Z,10.40
2022-09-28T11:19:39.092Z,10.39
2022-09-28T11:23:31.267Z,10.41
2022-09-28T11:27:00.440Z,10.46
2022-09-28T11:30:33.801Z,10.44
2022-09-28T11:34:31.575Z,10.47
2022-09-28T11:38:05.695Z,10.51
2022-09-28T11:41:58.007Z,10.53
2022-09-28T11:45:27.155Z,10.52
2022-09-28T11:49:00.912Z,10.50
2022-09-28T11:52:40.601Z,10.55
2022-09-28T11:56:11.380Z,10.60
2022-09-28T12:00:16.520Z,10.63
2022-09-28T12:03:45.357Z,10.67
2022-09-28T12:07:08.961Z,10.73
2022-09-28T12:10:45.410Z,10.75
2022-09-28T12:14:36.120Z,10.76
2022-09-28T12:18:04.125Z,10.78
2022-09-28T12:21:48.638Z,10.88
2022-09-28T12:25:05.198Z,10.96
2022-09-28T12:28:44.417Z,11.07
2022-09-28T12:32:54.099Z,11.13
2022-09-28T12:36:26.986Z,11.21
2022-09-28T12:40:22.515Z,11.28
2022-09-28T12:43:54.813Z,11.34
2022-09-28T12:47:06.175Z,11.35
2022-09-28T12:50:58.447Z,11.39
2022-09-28T12:54:34.642Z,11.40
2022-09-28T12:58:36.851Z,11.44
2022-09-28T13:01:45.489Z,11.46
2022-09-28T13:05:29.731Z,11.48
2022-09-28T13:09:04.885Z,11.50
2022-09-28T13:12:44.854Z,11.52
2022-09-28T13:16:42.552Z,11.55
2022-09-28T13:20:04.100Z,11.56
2022-09-28T13:23:43.542Z,11.57
2022-09-28T13:27:23.535Z,11.58
2022-09-28T13:30:47.205Z,11.59
2022-09-28T13:34:26.907Z,11.58
2022-09-28T13:38:18.189Z,11.54
2022-09-28T13:41:40.736Z,11.54
2022-09-28T13:45:35.345Z,11.52
2022-09-28T13:49:42.784Z,11.51
2022-09-28T13:53:31.585Z,11.54
2022-09-28T13:56:50.122Z,11.59
2022-09-28T14:00:36.729Z,11.60
2022-09-28T14:04:14.248Z,11.61
2022-09-28T14:08:05.684Z,11.64
2022-09-28T14:11:36.135Z,11.63
2022-09-28T14:14:52.186Z,11.63
2022-09-28T14:18:32.087Z,11.67
2022-09-28T14:22:03.458Z,11.74
2022-09-28T14:25:57.384Z,11.78
2022-09-28T14:29:30.214Z,11.81
2022-09-28T14:32:57.211Z,11.82
2022-09-28T14:37:00.181Z,11.81
2022-09-28T14:40:36.732Z,11.80
2022-09-28T14:43:50.253Z,11.84
2022-09-28T14:48:04.676Z,11.88
2022-09-28T14:51:33.188Z,11.89
2022-09-28T14:54:48.477Z,11.91
2022-09-28T14:58:30.125Z,11.93
2022-09-28T15:02:01.366Z,11.93
2022-09-28T15:05:42.159Z,11.92
2022-09-28T15:09:27.501Z,11.94
2022-09-28T15:12:45.247Z,11.93
2022-09-28T15:16:25.260Z,11.91
2022-09-28T15:20:31.477Z,11.92
2022-09-28T15:23:47.214Z,11.93
2022-09-28T15:27:23.372Z,11.95
2022-09-28T15:31:03.259Z,11.98
2022-09-28T15:34:55.999Z,12.00
2022-09-28T15:38:17.823Z,12.01
2022-09-28T15:41:50.981Z,12.00
2022-09-28T15:45:37.474Z,12.03
2022-09-28T15:49:04.767Z,12.14
2022-09-28T15:52:53.046Z,12.18
2022-09-28T15:56:16.116Z,12.21
2022-09-28T15:59:59.666Z,12.27
2022-09-28T16:03:31.440Z,12.30
2022-09-28T16:07:18.639Z,12.33
2022-09-28T16:10:57.061Z,12.37
2022-09-28T16:14:24.259Z,12.39
2022-09-28T16:18:02.789Z,12.40
2022-09-28T16:21:47.098Z,12.41
2022-09-28T16:25:25.302Z,12.40
2022-09-28T16:28:52.154Z,12.38
2022-09-28T16:32:27.765Z,12.36
2022-09-28T16:36:03.374Z,12.37
2022-09-28T16:39:39.196Z,12.40
2022-09-28T16:43:27.154Z,12.45
2022-09-28T16:46:55.315Z,12.45
2022-09-28T16:50:28.324Z,12.45
2022-09-28T16:54:42.725Z,12.45
2022-09-28T16:57:52.527Z,12.46
2022-09-28T17:01:19.743Z,12.46
2022-09-28T17:04:57.784Z,12.44
2022-09-28T17:08:33.873Z,12.36
2022-09-28T17:12:18.464Z,12.22
2022-09-28T17:15:50.855Z,12.09
2022-09-28T17:19:25.762Z,11.97
2022-09-28T17:23:00.743Z,11.90
2022-09-28T17:26:37.265Z,11.85
2022-09-28T17:30:15.084Z,11.82
2022-09-28T17:33:51.551Z,11.80
2022-09-28T17:37:27.759Z,11.79
2022-09-28T17:41:04.773Z,11.71
2022-09-28T17:44:41.404Z,11.60
2022-09-28T17:48:23.579Z,11.58
2022-09-28T17:51:54.501Z,11.57
2022-09-28T17:55:32.424Z,11.57
2022-09-28T17:59:13.738Z,11.55
2022-09-28T18:02:45.784Z,11.52
2022-09-28T18:06:23.085Z,11.49
2022-09-28T18:09:59.835Z,11.46
2022-09-28T18:13:35.070Z,11.44
2022-09-28T18:17:11.805Z,11.42
2022-09-28T18:20:49.094Z,11.41
2022-09-28T18:24:27.247Z,11.39
2022-09-28T18:28:03.791Z,11.37
2022-09-28T18:31:50.211Z,11.34
2022-09-28T18:35:22.790Z,11.32
2022-09-28T18:38:53.397Z,11.31
2022-09-28T18:42:32.016Z,11.33
2022-09-28T18:46:10.456Z,11.32
2022-09-28T18:49:46.576Z,11.28
2022-09-28T18:53:20.344Z,11.27
2022-09-28T18:56:57.544Z,11.23
2022-09-28T19:00:33.768Z,11.19
2022-09-28T19:04:11.964Z,11.14
2022-09-28T19:07:47.041Z,11.10
2022-09-28T19:11:24.804Z,11.05
2022-09-28T19:15:00.885Z,11.02
2022-09-28T19:18:39.109Z,11.00
2022-09-28T19:22:13.854Z,10.97
2022-09-28T19:25:50.697Z,10.95
2022-09-28T19:29:27.451Z,10.93
2022-09-28T19:33:04.565Z,10.93
2022-09-28T19:36:41.215Z,10.91
2022-09-28T19:40:18.159Z,10.93
2022-09-28T19:43:55.823Z,10.94
2022-09-28T19:47:31.945Z,10.93
2022-09-28T19:51:09.005Z,10.90
2022-09-28T19:54:54.533Z,10.86
2022-09-28T19:58:23.039Z,10.83
2022-09-28T20:02:01.696Z,10.80
2022-09-28T20:05:39.114Z,10.77
2022-09-28T20:09:12.439Z,10.76
2022-09-28T20:12:49.190Z,10.75
2022-09-28T20:16:28.025Z,10.73
2022-09-28T20:20:05.162Z,10.72
2022-09-28T20:23:41.976Z,10.72
2022-09-28T20:27:16.338Z,10.71
2022-09-28T20:30:53.786Z,10.68
2022-09-28T20:34:30.247Z,10.65
2022-09-28T20:38:09.933Z,10.64
2022-09-28T20:41:43.689Z,10.63
2022-09-28T20:45:20.593Z,10.61
2022-09-28T20:48:58.058Z,10.59
2022-09-28T20:52:33.861Z,10.57
2022-09-28T20:56:23.609Z,10.55
2022-09-28T20:59:53.748Z,10.53
2022-09-28T21:03:25.208Z,10.53
2022-09-28T21:07:19.860Z,10.53
2022-09-28T21:10:41.137Z,10.52
2022-09-28T21:14:16.097Z,10.51
2022-09-28T21:17:54.673Z,10.49
2022-09-28T21:21:28.328Z,10.48
2022-09-28T21:25:05.124Z,10.47
2022-09-28T21:28:42.514Z,10.45
2022-09-28T21:32:18.626Z,10.43
2022-09-28T21:35:55.214Z,10.41
2022-09-28T21:43:08.892Z,10.34
2022-09-28T21:46:45.556Z,10.33
2022-09-28T21:50:24.922Z,10.29
2022-09-28T21:53:59.435Z,10.27
2022-09-28T21:57:35.942Z,10.26
2022-09-28T22:01:32.008Z,10.25
2022-09-28T22:04:49.455Z,10.23
2022-09-28T22:08:26.431Z,10.21
2022-09-28T22:12:05.477Z,10.20
2022-09-28T22:15:40.206Z,10.20
2022-09-28T22:19:17.210Z,10.20
2022-09-28T22:22:53.865Z,10.21
2022-09-28T22:26:32.313Z,10.22
2022-09-28T22:30:07.734Z,10.22
2022-09-28T22:33:44.371Z,10.22
2022-09-28T22:37:21.500Z,10.23
2022-09-28T22:40:58.765Z,10.23
2022-09-28T22:44:53.339Z,10.24
2022-09-28T22:48:11.568Z,10.25
2022-09-28T22:51:47.973Z,10.23
2022-09-28T22:59:02.691Z,10.12
2022-09-28T23:02:38.345Z,10.06
2022-09-28T23:06:18.031Z,10.02
2022-09-28T23:09:51.694Z,9.98
2022-09-28T23:13:31.273Z,9.94
2022-09-28T23:17:24.546Z,9.93
2022-09-28T23:20:42.400Z,9.91
2022-09-28T23:24:19.272Z,9.90
2022-09-28T23:27:55.727Z,9.90
2022-09-28T23:31:34.015Z,9.88
2022-09-28T23:35:10.018Z,9.86
2022-09-28T23:38:46.283Z,9.83
2022-09-28T23:42:22.988Z,9.82
2022-09-28T23:45:59.798Z,9.81
2022-09-28T23:49:36.636Z,9.80
2022-09-28T23:53:15.281Z,9.78
2022-09-28T23:56:50.817Z,9.76
